Rolla, MO (65401)

4:04 PM CDT on August 26, 2016 (GMT -0500)
College Hills | | Change Station

Elev 1122 ft 37.96 °N, 91.74 °W | Updated 6 seconds ago

Clear
Clear
82.8 °F
Feels Like 90 °F
N
0.0
Wind Variable Wind from SW
Gusts 2.0 mph

Today
High -- | Low -- °F
--% Chance of Precip.
Yesterday
High -- | Low -- °F
Precip. -- in
Pressure 30.02 in
Visibility 10.0 miles
Clouds Clear
Heat Index 90 °F
Dew Point 76 °F
Humidity 79%
Rainfall 0.00 in
Snow Depth Not available.
6:32 AM 7:44 PM
Waning Crescent, 31% visible
METAR KVIH 262053Z AUTO 08003KT 10SM CLR 28/23 A3005 RMK AO2 SLP164 60000 T02780228 58016
Pressure 30.02 in
Visibility 10.0 miles
Clouds Clear
Heat Index 90 °F
Dew Point 76 °F
Humidity 79%
Rainfall 0.00 in
Snow Depth Not available.
6:32 AM 7:44 PM
Waning Crescent, 31% visible
METAR KVIH 262053Z AUTO 08003KT 10SM CLR 28/23 A3005 RMK AO2 SLP164 60000 T02780228 58016

10-Day Weather Forecast

Almanac

Astronomy

Aug. 26, 2016 Rise Set
Actual Time
Civil Twilight
Nautical Twilight
Astronomical Twilight
Moon
Length of Visible Light
Length of Day
Tomorrow will be .
, % of the Moon is Illuminated

Today's Extremes

State Highs State Lows

Community

WunderPhotos

Upload Photos

1,935,203 photos uploaded!

WunderBlog® & News

Nearby

Air Quality

  Air Quality AQ Index Pollutant
Not available.

Snow Depth

Station Depth Elevation

Earthquake Activity

City Distance Mag. Time & Date
Minimum magnitude displayed is 2.5.

Coastal Water Temperatures

Place Temperature

Stations

Nearby Weather Stations

Station Location Temp. Windchill Dew Point Humidity Wind Precip. Elev Updated Type
                   

Watches & Warnings

There are currently no watches in effect.